Terminal Aerodrome Forecast
Issued by NWS Duluth, MN

Home | Current Version | Previous Version | Text Only | Print | Product List | Glossary On
Versions: 1 2 3 4 5 6 7 8 9 10 11 12 13 14 15 16 17 18 19 20
000
FTUS43 KDLH 200529
TAFDLH
TAF
KDLH 200529Z 2006/2106 30005KT P6SM VCSH BKN060
      TEMPO 2008/2010 6SM -SHRA SCT025 BKN040
     FM201300 32007KT P6SM SCT050
     FM201700 32008G15KT P6SM BKN050
     FM210000 32006KT P6SM SCT050=

USA.gov is the U.S. government's official web portal to all federal, state and local government web resources and services.